Time;durP1;ratioP1;P1;durP2;ratioP2;P2;SDS_P1;SDS_P2;PMS_P1;PMS_P2;Temp;Humidity;BMP_temperature;BMP_pressure;BME280_temperature;BME280_humidity;BME280_pressure;Samples;Min_cycle;Max_cycle;Signal;HPM_P1;HPM_P2
2023/09/18 00:01:00;;;;;;;19.40;9.23;;;18.80;1.00;;;;;;5033040;28;20923;-80
2023/09/18 00:03:30;;;;;;;25.17;9.07;;;18.70;1.00;;;;;;5040809;28;20824;-80
2023/09/18 00:06:00;;;;;;;18.63;9.30;;;18.70;1.00;;;;;;5027108;28;20411;-80
2023/09/18 00:08:31;;;;;;;25.17;9.10;;;18.70;1.00;;;;;;5040901;28;20784;-80
2023/09/18 00:11:00;;;;;;;19.60;8.53;;;18.70;1.00;;;;;;5036679;28;20395;-80
2023/09/18 00:13:26;;;;;;;14.43;8.40;;;18.70;1.00;;;;;;5029163;28;20469;-80
2023/09/18 00:16:01;;;;;;;19.23;9.43;;;18.70;1.00;;;;;;5045974;28;20438;-80
2023/09/18 00:18:30;;;;;;;16.30;8.93;;;18.70;1.00;;;;;;5052767;28;20587;-80
2023/09/18 00:20:56;;;;;;;12.93;8.87;;;18.70;1.00;;;;;;5043999;28;20408;-80
2023/09/18 00:23:22;;;;;;;16.83;8.97;;;18.60;1.00;;;;;;5049894;28;20502;-80
2023/09/18 00:26:00;;;;;;;16.47;9.40;;;18.60;1.00;;;;;;5036450;28;20168;-80
2023/09/18 00:28:30;;;;;;;18.87;8.23;;;18.60;1.00;;;;;;5036222;28;20184;-81
2023/09/18 00:31:06;;;;;;;21.53;9.70;;;18.60;1.00;;;;;;5036244;28;20776;-80
2023/09/18 00:33:37;;;;;;;13.00;8.37;;;18.70;1.00;;;;;;5029450;28;20971;-80
2023/09/18 00:36:03;;;;;;;13.23;8.30;;;18.70;1.00;;;;;;5024729;28;20411;-80
2023/09/18 00:38:29;;;;;;;13.10;8.43;;;18.70;1.00;;;;;;5034874;28;20485;-81
2023/09/18 00:40:54;;;;;;;16.83;8.67;;;18.70;1.00;;;;;;5036314;28;20479;-80
2023/09/18 00:43:21;;;;;;;23.93;9.40;;;18.60;1.00;;;;;;5040807;28;20209;-80
2023/09/18 00:45:49;;;;;;;23.00;8.70;;;18.60;1.00;;;;;;5043663;28;20417;-80
2023/09/18 00:48:16;;;;;;;15.90;8.33;;;18.70;1.00;;;;;;5041665;28;20865;-79
2023/09/18 00:50:44;;;;;;;22.53;9.13;;;18.70;1.00;;;;;;5045162;28;20517;-80
2023/09/18 00:53:26;;;;;;;15.53;9.17;;;18.70;1.00;;;;;;5028587;28;20466;-79
2023/09/18 00:55:57;;;;;;;15.60;8.50;;;18.70;1.00;;;;;;5034732;28;20419;-79
2023/09/18 00:58:25;;;;;;;26.83;8.83;;;18.70;1.00;;;;;;5022979;28;20445;-79
2023/09/18 01:01:16;;;;;;;12.60;8.03;;;18.70;1.00;;;;;;5039638;28;20764;-80
2023/09/18 01:03:41;;;;;;;15.20;8.67;;;18.70;1.00;;;;;;5021462;28;20438;-80
2023/09/18 01:06:07;;;;;;;18.70;9.40;;;18.70;1.00;;;;;;5035450;28;20415;-80
2023/09/18 01:08:33;;;;;;;15.13;8.47;;;18.70;1.00;;;;;;5042898;28;20183;-80
2023/09/18 01:11:08;;;;;;;20.20;8.77;;;18.80;1.00;;;;;;5050955;28;20183;-80
2023/09/18 01:13:58;;;;;;;13.20;8.63;;;18.80;1.00;;;;;;5038381;28;20337;-80
2023/09/18 01:16:39;;;;;;;20.53;8.30;;;18.90;1.00;;;;;;5052277;28;20429;-80
2023/09/18 01:19:05;;;;;;;17.03;8.00;;;18.90;1.00;;;;;;5051089;28;20581;-80
2023/09/18 01:21:30;;;;;;;10.70;8.17;;;18.90;1.00;;;;;;5053994;28;20550;-80
2023/09/18 01:23:56;;;;;;;12.80;8.17;;;18.90;1.00;;;;;;5039773;28;20204;-79
2023/09/18 01:26:22;;;;;;;12.93;7.80;;;18.90;1.00;;;;;;5041202;28;20225;-80
2023/09/18 01:28:47;;;;;;;13.13;8.10;;;18.90;1.00;;;;;;5052454;28;20186;-81
2023/09/18 01:31:19;;;;;;;12.67;7.07;;;18.90;1.00;;;;;;5044952;28;20539;-81
2023/09/18 01:33:49;;;;;;;13.03;7.90;;;18.90;1.00;;;;;;5033560;28;20200;-80
2023/09/18 01:36:25;;;;;;;18.70;9.00;;;18.90;1.00;;;;;;5025427;28;21115;-80
2023/09/18 01:38:55;;;;;;;17.80;7.43;;;18.90;1.00;;;;;;5020705;28;20398;-81
2023/09/18 01:41:37;;;;;;;21.20;8.27;;;18.90;1.00;;;;;;5030603;28;20439;-80
2023/09/18 01:44:12;;;;;;;18.40;7.73;;;18.90;1.00;;;;;;5014995;28;20403;-80
2023/09/18 01:46:57;;;;;;;21.27;8.23;;;18.90;1.00;;;;;;5015174;28;20396;-80
2023/09/18 01:49:38;;;;;;;14.47;7.33;;;18.90;1.00;;;;;;5024306;28;20398;-80
2023/09/18 01:52:05;;;;;;;8.07;6.43;;;18.90;1.00;;;;;;5040576;28;20504;-80
2023/09/18 01:54:36;;;;;;;13.63;7.40;;;19.00;1.00;;;;;;5040978;28;20522;-80
2023/09/18 01:57:09;;;;;;;17.40;7.87;;;19.00;1.00;;;;;;5043021;28;20412;-80
2023/09/18 01:59:43;;;;;;;18.73;7.80;;;19.00;1.00;;;;;;5027616;28;20442;-81
2023/09/18 02:02:18;;;;;;;12.50;7.00;;;19.10;1.00;;;;;;5030746;28;20424;-81
2023/09/18 02:05:06;;;;;;;21.53;7.43;;;19.10;1.00;;;;;;5033906;28;20788;-81
2023/09/18 02:07:36;;;;;;;16.03;8.07;;;19.10;1.00;;;;;;5031077;28;20430;-80
2023/09/18 02:10:07;;;;;;;23.40;7.33;;;19.10;1.00;;;;;;5021814;28;20503;-80
2023/09/18 02:12:42;;;;;;;16.07;7.50;;;19.10;1.00;;;;;;5039593;28;20462;-79
2023/09/18 02:15:18;;;;;;;13.93;8.00;;;19.00;1.00;;;;;;5034200;28;20426;-80
2023/09/18 02:17:54;;;;;;;15.40;7.60;;;19.00;1.00;;;;;;5034227;28;20955;-80
2023/09/18 02:20:24;;;;;;;10.73;7.70;;;19.00;1.00;;;;;;5044271;28;20419;-80
2023/09/18 02:23:06;;;;;;;13.67;7.50;;;19.00;1.00;;;;;;5030340;28;20447;-80
2023/09/18 02:25:36;;;;;;;13.43;6.97;;;19.10;1.00;;;;;;5031696;28;20808;-81
2023/09/18 02:28:07;;;;;;;9.93;7.20;;;19.10;1.00;;;;;;5033473;28;20518;-80
2023/09/18 02:30:37;;;;;;;12.47;6.97;;;;;;;;;;5028575;28;20790;-80
2023/09/18 02:33:06;;;;;;;21.20;6.93;;;19.30;1.00;;;;;;5033301;28;20482;-81
2023/09/18 02:35:36;;;;;;;15.03;8.40;;;19.40;1.00;;;;;;5025696;28;20911;-79
2023/09/18 02:38:06;;;;;;;16.20;7.43;;;19.40;1.00;;;;;;5027918;28;20416;-80
2023/09/18 02:40:36;;;;;;;13.33;7.47;;;19.40;1.00;;;;;;5033481;28;20420;-80
2023/09/18 02:43:06;;;;;;;11.47;6.93;;;19.50;1.00;;;;;;5031889;28;20431;-80
2023/09/18 02:46:00;;;;;;;14.57;7.47;;;19.50;1.00;;;;;;5023776;28;20400;-80
2023/09/18 02:48:30;;;;;;;20.33;6.97;;;19.50;1.00;;;;;;5030770;28;20436;-80
2023/09/18 02:51:07;;;;;;;10.73;6.90;;;19.50;1.00;;;;;;5030599;28;20940;-80
2023/09/18 02:53:36;;;;;;;14.47;7.33;;;19.50;1.00;;;;;;5038353;28;21015;-80
2023/09/18 02:56:07;;;;;;;11.97;7.20;;;19.50;1.00;;;;;;5033602;28;20416;-80
2023/09/18 02:58:36;;;;;;;15.27;7.30;;;19.50;1.00;;;;;;5022627;28;20424;-80
2023/09/18 03:01:36;;;;;;;15.67;8.03;;;19.50;1.00;;;;;;5029432;28;20407;-80
2023/09/18 03:04:07;;;;;;;17.43;7.63;;;19.50;1.00;;;;;;5023458;28;20414;-80
2023/09/18 03:06:39;;;;;;;14.53;8.17;;;19.50;1.00;;;;;;5043688;28;20765;-80
2023/09/18 03:09:30;;;;;;;14.87;7.30;;;19.40;1.00;;;;;;5037839;28;20934;-80
2023/09/18 03:12:00;;;;;;;12.23;7.27;;;19.40;1.00;;;;;;5024049;28;20456;-80
2023/09/18 03:14:30;;;;;;;15.27;7.13;;;19.40;1.00;;;;;;5032756;28;20890;-80
2023/09/18 03:17:06;;;;;;;11.47;8.10;;;19.30;1.00;;;;;;5036976;28;20423;-80
2023/09/18 03:19:36;;;;;;;14.67;7.30;;;19.30;1.00;;;;;;5036004;28;21772;-80
2023/09/18 03:22:06;;;;;;;11.80;7.93;;;19.20;1.00;;;;;;5033360;28;20421;-81
2023/09/18 03:24:36;;;;;;;10.20;7.03;;;19.10;1.00;;;;;;5035884;28;20989;-80
2023/09/18 03:27:06;;;;;;;13.93;7.53;;;19.10;1.00;;;;;;5035426;28;20416;-80
2023/09/18 03:29:32;;;;;;;10.27;6.80;;;19.00;1.00;;;;;;5024756;28;20438;-81
2023/09/18 03:32:00;;;;;;;10.30;6.97;;;19.00;1.00;;;;;;5033162;28;20500;-80
2023/09/18 03:34:26;;;;;;;12.00;6.43;;;19.00;1.00;;;;;;5023801;28;20429;-80
2023/09/18 03:37:36;;;;;;;10.40;7.10;;;19.00;2.40;;;;;;5015198;28;20730;-80
2023/09/18 03:40:43;;;;;;;14.27;7.53;;;19.00;3.20;;;;;;5033958;28;20414;-86
2023/09/18 03:43:30;;;;;;;17.07;7.50;;;19.00;4.10;;;;;;5037610;28;20469;-87
2023/09/18 03:49:17;;;;;;;10.77;6.97;;;19.00;5.80;;;;;;5037569;28;20372;-87
2023/09/18 03:52:06;;;;;;;16.37;8.30;;;19.00;3.40;;;;;;5037073;28;20415;-90
2023/09/18 03:54:36;;;;;;;17.37;7.63;;;19.00;7.20;;;;;;5038253;28;20178;-90
2023/09/18 03:57:18;;;;;;;13.50;7.17;;;19.00;7.90;;;;;;5043563;28;20425;-89
2023/09/18 03:59:44;;;;;;;14.70;7.70;;;19.00;7.80;;;;;;5036221;28;20426;-89
2023/09/18 04:02:09;;;;;;;22.33;7.47;;;18.90;7.50;;;;;;5026186;28;20887;-90
2023/09/18 04:07:57;;;;;;;10.17;7.30;;;18.90;7.80;;;;;;5042356;28;20242;-90
2023/09/18 04:10:42;;;;;;;14.03;7.37;;;18.90;6.80;;;;;;5037410;28;20418;-90
2023/09/18 04:33:21;;;;;;;11.80;6.90;;;18.70;11.70;;;;;;5031026;28;21039;-87
2023/09/18 04:35:47;;;;;;;13.20;7.40;;;18.70;10.50;;;;;;5035817;28;21001;-87
2023/09/18 04:38:54;;;;;;;14.43;7.20;;;18.70;13.70;;;;;;5036834;28;20462;-87
2023/09/18 04:42:06;;;;;;;14.47;7.27;;;18.70;14.80;;;;;;5031048;28;20639;-87
2023/09/18 04:44:48;;;;;;;11.20;8.17;;;18.70;15.00;;;;;;5015620;28;20422;-86
2023/09/18 04:47:36;;;;;;;22.90;7.77;;;18.70;15.80;;;;;;5024449;28;20932;-87
2023/09/18 04:53:24;;;;;;;10.43;7.43;;;18.80;18.30;;;;;;5051520;28;21173;-87
2023/09/18 05:03:24;;;;;;;11.00;7.60;;;18.80;22.30;;;;;;5048982;28;20785;-87
2023/09/18 05:06:01;;;;;;;9.77;7.53;;;18.80;22.90;;;;;;5042589;28;20413;-90
2023/09/18 05:09:12;;;;;;;12.50;7.70;;;18.80;23.40;;;;;;5035324;28;20425;-90
2023/09/18 05:18:21;;;;;;;12.10;6.80;;;18.80;29.00;;;;;;5020326;28;20381;-89
2023/09/18 05:27:54;;;;;;;18.03;7.20;;;18.90;27.50;;;;;;5035525;28;20436;-88
2023/09/18 05:30:25;;;;;;;15.23;6.80;;;18.90;30.40;;;;;;5034913;28;20445;-88
2023/09/18 05:36:54;;;;;;;8.93;6.60;;;18.90;31.20;;;;;;5032846;28;21031;-87
2023/09/18 05:39:30;;;;;;;10.83;5.90;;;19.00;28.10;;;;;;5054497;28;20426;-87
2023/09/18 05:42:00;;;;;;;19.03;6.23;;;19.00;33.30;;;;;;5052799;28;20900;-87
2023/09/18 05:48:01;;;;;;;15.90;5.43;;;19.00;35.50;;;;;;5041109;28;20426;-87
2023/09/18 05:50:54;;;;;;;19.03;5.97;;;19.00;38.40;;;;;;5039696;28;20498;-87
2023/09/18 05:56:42;;;;;;;15.27;5.87;;;19.20;29.60;;;;;;5038090;28;20461;-84
2023/09/18 05:59:12;;;;;;;13.17;5.53;;;19.30;25.10;;;;;;5035290;28;20882;-84
2023/09/18 06:02:12;;;;;;;19.60;5.40;;;19.30;23.30;;;;;;5024078;28;20519;-85
2023/09/18 06:04:43;;;;;;;9.73;5.00;;;19.40;19.90;;;;;;5026531;28;20431;-83
2023/09/18 06:07:30;;;;;;;20.03;4.97;;;19.50;14.90;;;;;;5038914;28;20454;-87
2023/09/18 06:10:13;;;;;;;19.00;4.90;;;19.50;16.30;;;;;;5046921;28;20417;-87
2023/09/18 06:16:06;;;;;;;13.83;4.60;;;19.60;11.40;;;;;;5038501;28;20465;-86
2023/09/18 06:19:00;;;;;;;9.73;4.23;;;19.60;11.30;;;;;;5042953;28;20469;-86
2023/09/18 06:21:26;;;;;;;25.63;4.73;;;19.60;10.90;;;;;;5034977;28;20420;-84
2023/09/18 06:23:52;;;;;;;13.00;4.37;;;19.50;10.00;;;;;;5032849;28;20444;-83
2023/09/18 06:26:48;;;;;;;16.07;4.70;;;19.60;10.40;;;;;;5044264;28;20486;-83
2023/09/18 06:29:54;;;;;;;18.37;4.27;;;19.70;7.70;;;;;;5029645;28;20810;-87
2023/09/18 06:32:37;;;;;;;11.47;4.40;;;19.80;4.80;;;;;;5049321;28;20589;-87
2023/09/18 06:35:02;;;;;;;14.23;4.43;;;19.80;3.90;;;;;;5034532;28;20910;-87
2023/09/18 06:37:28;;;;;;;15.40;4.87;;;19.80;1.00;;;;;;5043990;28;20430;-86
2023/09/18 06:43:18;;;;;;;16.43;4.60;;;19.90;1.10;;;;;;5026952;28;20382;-86
2023/09/18 06:46:30;;;;;;;10.43;3.83;;;19.90;1.00;;;;;;5009585;28;20518;-87
2023/09/18 06:49:00;;;;;;;10.63;4.53;;;20.00;1.00;;;;;;5040388;28;20427;-86
2023/09/18 06:52:18;;;;;;;14.77;3.90;;;20.00;1.00;;;;;;5039468;28;20433;-89
2023/09/18 06:55:24;;;;;;;9.60;3.87;;;20.00;1.00;;;;;;5032499;28;20420;-89
2023/09/18 06:58:42;;;;;;;13.20;4.13;;;20.00;1.00;;;;;;5015674;28;20495;-89
2023/09/18 07:07:51;;;;;;;14.73;3.30;;;20.10;1.00;;;;;;5015635;28;20493;-87
2023/09/18 07:11:00;;;;;;;13.87;3.60;;;20.20;1.00;;;;;;5023499;28;20919;-87
2023/09/18 07:13:43;;;;;;;13.33;3.77;;;20.40;1.00;;;;;;5026513;28;20197;-86
2023/09/18 07:16:13;;;;;;;22.87;4.20;;;20.60;1.00;;;;;;5033660;28;20430;-87
2023/09/18 07:18:43;;;;;;;8.10;3.30;;;20.70;1.00;;;;;;5032210;28;20474;-87
2023/09/18 07:25:07;;;;;;;6.70;2.60;;;20.80;1.00;;;;;;5052302;28;20930;-87
2023/09/18 07:31:14;;;;;;;16.27;3.57;;;;;;;;;;5035460;28;20427;-87
2023/09/18 07:37:01;;;;;;;21.30;4.23;;;20.80;1.00;;;;;;5035173;28;20408;-89
2023/09/18 07:40:18;;;;;;;9.70;3.13;;;20.80;1.00;;;;;;5029435;28;20933;-89
2023/09/18 07:46:05;;;;;;;12.80;3.80;;;20.90;1.00;;;;;;5033942;28;20962;-84
2023/09/18 07:48:42;;;;;;;11.53;3.30;;;20.80;1.00;;;;;;5034508;28;20425;-89
2023/09/18 07:51:18;;;;;;;12.93;3.50;;;21.00;1.00;;;;;;5042287;28;20638;-79
2023/09/18 07:54:07;;;;;;;8.50;3.40;;;21.00;1.00;;;;;;5038330;28;20478;-87
2023/09/18 07:56:36;;;;;;;14.70;3.77;;;21.00;1.00;;;;;;5043354;28;20420;-82
2023/09/18 07:59:07;;;;;;;8.53;2.93;;;21.30;1.00;;;;;;5030391;28;20900;-83
2023/09/18 08:02:00;;;;;;;14.33;3.43;;;21.40;1.00;;;;;;5034643;28;20888;-82
2023/09/18 08:04:26;;;;;;;13.83;3.30;;;21.50;1.00;;;;;;5031127;28;20429;-83
2023/09/18 08:06:55;;;;;;;10.00;3.20;;;21.70;1.00;;;;;;5052419;28;20911;-80
2023/09/18 08:09:21;;;;;;;11.67;3.10;;;21.80;1.00;;;;;;5052884;28;20286;-82
2023/09/18 08:12:18;;;;;;;8.30;3.03;;;21.90;1.00;;;;;;5042278;28;20948;-82
2023/09/18 08:18:26;;;;;;;14.63;4.07;;;22.20;1.00;;;;;;5051322;28;20728;-82
2023/09/18 08:21:08;;;;;;;8.77;3.30;;;22.20;1.00;;;;;;5051129;28;20394;-83
2023/09/18 08:24:06;;;;;;;12.00;3.40;;;22.30;1.00;;;;;;5032004;28;20489;-82
2023/09/18 08:26:32;;;;;;;11.10;2.83;;;22.30;1.00;;;;;;5032394;28;20467;-82
2023/09/18 08:29:30;;;;;;;11.30;3.60;;;22.60;1.00;;;;;;5054396;28;20484;-82
2023/09/18 08:32:33;;;;;;;13.50;2.60;;;22.70;1.00;;;;;;5029118;28;20189;-82
2023/09/18 08:35:07;;;;;;;14.47;2.80;;;22.80;1.00;;;;;;5018132;28;20481;-82
2023/09/18 08:37:36;;;;;;;10.60;2.47;;;23.00;1.00;;;;;;5041436;28;20508;-78
2023/09/18 08:40:19;;;;;;;12.63;2.93;;;23.10;1.00;;;;;;5029203;28;20541;-78
2023/09/18 08:42:53;;;;;;;10.50;2.60;;;23.20;1.00;;;;;;5033188;28;20528;-78
2023/09/18 08:45:35;;;;;;;11.13;2.93;;;23.20;1.00;;;;;;5044597;28;20788;-78
2023/09/18 08:48:12;;;;;;;8.90;2.33;;;23.10;1.00;;;;;;5043722;28;20508;-78
2023/09/18 08:50:40;;;;;;;14.80;2.40;;;23.20;1.00;;;;;;5032249;28;20450;-78
2023/09/18 08:53:12;;;;;;;12.50;2.30;;;23.30;1.00;;;;;;5035505;28;20972;-82
2023/09/18 08:55:48;;;;;;;10.87;2.83;;;23.40;1.00;;;;;;5014680;28;20548;-82
2023/09/18 08:58:43;;;;;;;10.27;2.30;;;23.50;1.00;;;;;;5019083;28;20576;-82
2023/09/18 09:01:12;;;;;;;12.70;2.37;;;23.40;1.00;;;;;;5041244;28;20499;-81
2023/09/18 09:03:39;;;;;;;5.40;2.10;;;23.20;1.00;;;;;;5029939;28;20421;-82
2023/09/18 09:06:09;;;;;;;8.00;2.27;;;23.30;1.00;;;;;;5034502;28;21026;-81
2023/09/18 09:09:07;;;;;;;6.30;2.53;;;23.30;1.00;;;;;;5039385;28;20798;-79
2023/09/18 09:11:34;;;;;;;8.70;2.60;;;23.30;1.00;;;;;;5049125;28;20503;-79
2023/09/18 09:14:17;;;;;;;13.27;2.63;;;23.10;1.00;;;;;;5021680;28;20457;-79
2023/09/18 09:16:57;;;;;;;8.43;2.10;;;23.20;1.00;;;;;;5031013;28;20415;-79
2023/09/18 09:19:36;;;;;;;11.60;2.50;;;23.10;1.00;;;;;;5025931;28;20442;-78
2023/09/18 09:22:03;;;;;;;10.20;2.63;;;23.10;1.00;;;;;;5025993;28;20483;-78
2023/09/18 09:25:18;;;;;;;10.43;2.40;;;23.20;1.00;;;;;;5017911;28;20429;-82
2023/09/18 09:28:12;;;;;;;8.60;2.10;;;23.40;1.00;;;;;;5029300;28;20425;-78
2023/09/18 09:30:38;;;;;;;6.00;2.40;;;23.50;1.00;;;;;;5017017;28;20391;-78
2023/09/18 09:33:24;;;;;;;6.20;1.90;;;23.60;1.00;;;;;;5043410;28;20463;-78
2023/09/18 09:35:54;;;;;;;8.70;2.23;;;23.70;1.00;;;;;;5040706;28;20193;-78
2023/09/18 09:38:37;;;;;;;7.90;2.17;;;23.60;1.00;;;;;;5032356;28;20421;-82
2023/09/18 09:41:06;;;;;;;6.47;1.63;;;23.40;1.00;;;;;;5029413;28;20422;-80
2023/09/18 09:43:44;;;;;;;8.60;2.67;;;23.40;1.00;;;;;;5038897;28;20429;-81
2023/09/18 09:46:28;;;;;;;15.20;2.70;;;23.40;1.00;;;;;;5034486;28;20428;-82
2023/09/18 09:49:12;;;;;;;24.33;2.27;;;23.30;1.00;;;;;;5039913;28;20436;-81
2023/09/18 09:51:54;;;;;;;6.63;1.87;;;23.10;1.00;;;;;;5054730;28;20906;-81
2023/09/18 09:54:36;;;;;;;5.10;1.90;;;22.90;1.00;;;;;;5044399;28;20831;-78
2023/09/18 09:57:12;;;;;;;10.70;2.50;;;22.90;1.00;;;;;;5039841;28;20497;-78
2023/09/18 09:59:44;;;;;;;10.80;2.23;;;22.80;1.00;;;;;;5034973;28;20739;-78
2023/09/18 10:02:22;;;;;;;4.37;1.67;;;22.90;1.00;;;;;;5046705;28;20388;-78
2023/09/18 10:05:18;;;;;;;10.37;1.90;;;23.10;1.00;;;;;;5050775;28;20435;-78
2023/09/18 10:07:45;;;;;;;6.37;1.60;;;23.20;1.00;;;;;;5051268;28;20466;-78
2023/09/18 10:10:11;;;;;;;9.00;1.90;;;23.30;1.00;;;;;;5041644;28;20446;-78
2023/09/18 10:12:38;;;;;;;4.83;1.23;;;23.40;1.00;;;;;;5027817;28;20493;-78
2023/09/18 10:15:05;;;;;;;8.20;1.97;;;23.30;1.00;;;;;;5014963;28;20182;-78
2023/09/18 10:17:40;;;;;;;5.43;1.60;;;23.30;1.00;;;;;;5032477;28;20441;-78
2023/09/18 10:20:19;;;;;;;10.13;1.50;;;23.50;1.00;;;;;;5032649;28;20427;-78
2023/09/18 10:23:30;;;;;;;14.00;1.87;;;23.60;1.00;;;;;;5032125;28;20447;-78
2023/09/18 10:26:03;;;;;;;13.00;1.60;;;23.60;1.00;;;;;;5017896;28;20442;-78
2023/09/18 10:28:30;;;;;;;11.60;2.07;;;23.70;1.00;;;;;;5025129;28;20393;-78
2023/09/18 10:31:01;;;;;;;9.30;1.17;;;23.60;1.00;;;;;;5047494;28;20426;-77
2023/09/18 10:33:31;;;;;;;4.10;1.20;;;23.50;1.00;;;;;;5041488;28;20988;-78
2023/09/18 10:35:58;;;;;;;4.30;1.50;;;23.40;1.00;;;;;;5020650;28;20939;-79
2023/09/18 10:38:26;;;;;;;13.33;1.40;;;23.60;1.00;;;;;;5034788;28;20425;-78
2023/09/18 10:40:53;;;;;;;3.90;1.40;;;23.60;1.00;;;;;;5029260;28;20437;-78
2023/09/18 10:43:19;;;;;;;5.90;1.33;;;23.80;1.00;;;;;;5026847;28;20449;-78
2023/09/18 10:45:51;;;;;;;13.83;1.73;;;23.80;1.00;;;;;;5034515;28;20521;-78
2023/09/18 10:48:20;;;;;;;9.27;1.30;;;23.80;1.00;;;;;;5047633;28;20707;-78
2023/09/18 10:50:46;;;;;;;3.37;1.40;;;23.80;1.00;;;;;;5040090;28;21190;-78
2023/09/18 10:53:13;;;;;;;6.80;1.10;;;23.90;1.00;;;;;;5029208;28;20961;-78
2023/09/18 10:55:54;;;;;;;3.97;1.57;;;24.20;1.00;;;;;;5045037;28;20550;-80
2023/09/18 10:58:38;;;;;;;3.57;1.00;;;24.50;1.00;;;;;;5030485;28;20520;-81
2023/09/18 11:01:27;;;;;;;3.57;1.30;;;24.50;1.00;;;;;;5038381;28;20496;-80
2023/09/18 11:03:59;;;;;;;2.50;1.20;;;24.60;1.00;;;;;;5030681;28;20428;-80
2023/09/18 11:06:54;;;;;;;1.97;1.10;;;24.80;1.00;;;;;;5025928;28;20447;-81
2023/09/18 11:09:56;;;;;;;5.33;1.13;;;24.70;1.00;;;;;;5026685;28;20431;-79
2023/09/18 11:12:44;;;;;;;3.13;1.30;;;24.60;1.00;;;;;;4988711;28;20473;-78
2023/09/18 11:15:33;;;;;;;2.23;1.27;;;24.60;1.00;;;;;;4980876;28;21016;-78
2023/09/18 11:18:00;;;;;;;8.80;1.30;;;24.40;1.00;;;;;;4980424;28;20431;-78
2023/09/18 11:20:42;;;;;;;8.87;1.10;;;24.30;1.00;;;;;;4999072;28;20437;-79
2023/09/18 11:23:14;;;;;;;3.40;1.00;;;24.30;1.00;;;;;;4991566;28;20444;-79
2023/09/18 11:26:09;;;;;;;3.43;1.10;;;24.30;1.00;;;;;;4986274;28;20435;-80
2023/09/18 11:28:54;;;;;;;7.50;1.33;;;24.50;1.00;;;;;;5010062;28;20433;-78
2023/09/18 11:31:53;;;;;;;3.47;1.17;;;24.80;1.00;;;;;;4988417;28;20431;-78
2023/09/18 11:34:41;;;;;;;4.20;0.97;;;24.60;1.00;;;;;;5010794;28;20441;-78
2023/09/18 11:37:20;;;;;;;3.00;1.33;;;24.80;1.00;;;;;;5011201;28;20434;-78
2023/09/18 11:39:56;;;;;;;3.37;1.10;;;24.90;1.00;;;;;;5011413;28;20490;-78
2023/09/18 11:42:22;;;;;;;2.60;1.20;;;25.10;1.00;;;;;;5002140;28;20529;-79
2023/09/18 11:45:01;;;;;;;2.80;1.20;;;25.00;1.00;;;;;;5009115;28;20541;-80
2023/09/18 11:47:32;;;;;;;2.73;0.90;;;25.00;1.00;;;;;;5040183;28;20193;-79
2023/09/18 11:50:11;;;;;;;10.00;1.20;;;25.10;1.00;;;;;;5045170;28;20432;-78
2023/09/18 11:52:43;;;;;;;2.90;1.10;;;25.20;1.00;;;;;;5031321;28;21165;-78
2023/09/18 11:55:32;;;;;;;7.00;1.37;;;24.90;1.00;;;;;;5046780;28;20456;-77
2023/09/18 11:58:01;;;;;;;1.97;0.90;;;24.90;1.00;;;;;;5032002;28;20438;-78
2023/09/18 12:00:45;;;;;;;3.73;1.10;;;24.90;1.00;;;;;;5027557;28;20426;-78
2023/09/18 12:03:24;;;;;;;2.03;0.90;;;24.80;1.00;;;;;;5049671;28;20439;-78
2023/09/18 12:06:05;;;;;;;4.23;1.17;;;24.80;1.00;;;;;;5041171;28;20419;-78
2023/09/18 12:08:52;;;;;;;6.40;1.10;;;24.60;1.00;;;;;;5034403;28;20528;-78
2023/09/18 12:11:30;;;;;;;5.40;1.13;;;24.50;1.00;;;;;;5040991;28;20912;-78
2023/09/18 12:14:02;;;;;;;6.23;1.30;;;24.70;1.00;;;;;;5036856;28;20451;-81
2023/09/18 12:16:28;;;;;;;6.60;1.20;;;24.80;1.00;;;;;;5032979;28;20501;-79
2023/09/18 12:19:18;;;;;;;5.50;1.10;;;24.90;1.00;;;;;;5036491;28;20862;-79
2023/09/18 12:21:54;;;;;;;5.43;1.30;;;25.10;1.00;;;;;;5034395;28;20172;-79
2023/09/18 12:24:27;;;;;;;2.10;1.10;;;25.10;1.00;;;;;;5037681;28;20421;-79
2023/09/18 12:27:18;;;;;;;7.57;1.10;;;25.10;1.00;;;;;;5034940;28;20453;-79
2023/09/18 12:30:00;;;;;;;4.50;1.60;;;25.10;1.00;;;;;;5016598;28;20449;-79
2023/09/18 12:32:32;;;;;;;4.47;1.13;;;25.20;1.00;;;;;;5045425;28;20456;-80
2023/09/18 12:35:01;;;;;;;2.60;0.93;;;25.30;1.00;;;;;;5030890;28;20428;-80
2023/09/18 12:37:27;;;;;;;2.97;1.10;;;25.10;1.00;;;;;;5028875;28;20421;-80
2023/09/18 12:39:53;;;;;;;5.37;1.03;;;25.40;1.00;;;;;;5039032;28;20418;-80
2023/09/18 12:42:19;;;;;;;1.70;1.13;;;25.60;1.00;;;;;;5043746;28;20427;-80
2023/09/18 12:44:49;;;;;;;7.23;1.77;;;25.80;1.00;;;;;;5044434;28;20191;-80
2023/09/18 12:47:18;;;;;;;5.77;1.30;;;25.60;1.00;;;;;;5041081;28;20434;-80
2023/09/18 12:49:44;;;;;;;6.50;0.87;;;25.80;1.00;;;;;;5045994;28;20517;-80
2023/09/18 12:52:10;;;;;;;5.80;1.13;;;26.10;1.00;;;;;;5038829;28;20527;-79
2023/09/18 12:54:41;;;;;;;3.90;1.00;;;26.20;1.00;;;;;;5035471;28;20262;-78
2023/09/18 12:57:08;;;;;;;4.33;1.40;;;26.40;1.00;;;;;;5033762;28;20492;-79
2023/09/18 12:59:37;;;;;;;1.73;1.10;;;26.50;1.00;;;;;;5022528;28;20433;-79
2023/09/18 13:02:05;;;;;;;2.97;1.37;;;26.50;1.00;;;;;;5042014;28;20418;-83
2023/09/18 13:04:38;;;;;;;5.13;1.20;;;26.50;1.00;;;;;;5045711;28;20432;-86
2023/09/18 13:10:26;;;;;;;3.17;2.50;;;27.40;1.00;;;;;;5016612;28;20401;-87
2023/09/18 13:12:55;;;;;;;1.67;1.20;;;27.20;1.00;;;;;;5033055;28;20537;-88
2023/09/18 13:15:31;;;;;;;5.80;1.00;;;27.10;1.00;;;;;;5043180;28;20530;-88
2023/09/18 13:18:00;;;;;;;4.27;1.40;;;27.00;1.00;;;;;;5040398;28;20566;-87
2023/09/18 13:21:06;;;;;;;4.30;1.30;;;27.00;1.00;;;;;;5047804;28;20406;-88
2023/09/18 13:27:18;;;;;;;8.93;3.30;;;26.80;1.00;;;;;;5040529;28;20419;-85
2023/09/18 13:36:28;;;;;;;2.37;1.10;;;26.80;1.00;;;;;;5017194;28;20372;-84
2023/09/18 13:38:53;;;;;;;2.60;1.23;;;26.80;1.00;;;;;;5034129;28;20432;-84
2023/09/18 13:41:25;;;;;;;3.87;1.40;;;26.70;1.00;;;;;;5029008;28;20316;-87
2023/09/18 13:43:55;;;;;;;1.53;1.07;;;26.70;1.00;;;;;;5032639;28;20186;-87
2023/09/18 13:47:07;;;;;;;4.50;1.23;;;26.70;1.00;;;;;;5034509;28;20401;-86
2023/09/18 13:53:13;;;;;;;2.57;1.43;;;26.20;1.00;;;;;;5029941;28;20478;-87
2023/09/18 13:59:24;;;;;;;4.43;1.23;;;26.30;1.00;;;;;;5035191;28;20447;-87
2023/09/18 14:05:13;;;;;;;5.43;1.60;;;26.40;1.00;;;;;;5032434;28;20427;-88
2023/09/18 14:07:38;;;;;;;3.63;1.43;;;26.50;1.00;;;;;;5035408;28;20414;-88
2023/09/18 14:11:00;;;;;;;2.40;1.20;;;26.40;1.00;;;;;;5034507;28;20537;-88
2023/09/18 14:14:18;;;;;;;4.53;1.37;;;26.20;1.00;;;;;;5034062;28;20215;-85
2023/09/18 14:16:44;;;;;;;1.80;1.37;;;26.10;1.00;;;;;;5035227;28;20426;-83
2023/09/18 14:19:12;;;;;;;6.87;1.63;;;26.20;1.00;;;;;;5032960;28;20427;-83
2023/09/18 14:21:43;;;;;;;5.53;1.70;;;26.30;1.00;;;;;;5034475;28;20710;-84
2023/09/18 14:24:48;;;;;;;9.60;1.90;;;26.40;1.00;;;;;;5025172;28;20428;-83
2023/09/18 14:27:24;;;;;;;6.50;1.60;;;26.30;1.00;;;;;;5044827;28;20842;-84
2023/09/18 14:30:19;;;;;;;4.53;1.50;;;26.30;1.00;;;;;;5036221;28;20945;-83
2023/09/18 14:32:49;;;;;;;4.53;1.40;;;26.20;1.00;;;;;;5033509;28;22092;-84
2023/09/18 14:35:15;;;;;;;5.83;1.63;;;26.20;1.00;;;;;;5039444;28;20423;-83
2023/09/18 14:37:42;;;;;;;4.50;1.87;;;26.00;1.00;;;;;;5045254;28;20463;-85
2023/09/18 14:47:55;;;;;;;2.77;1.43;;;26.20;1.00;;;;;;5036404;28;20464;-88
2023/09/18 14:54:22;;;;;;;7.43;1.60;;;26.20;1.00;;;;;;5023991;28;20529;-90
2023/09/18 15:00:54;;;;;;;6.20;1.50;;;26.20;1.00;;;;;;5042033;28;20520;-89
2023/09/18 15:06:41;;;;;;;2.27;1.40;;;26.30;1.00;;;;;;5031762;28;20416;-84
2023/09/18 15:09:18;;;;;;;11.40;1.40;;;26.80;1.00;;;;;;5037659;28;20495;-85
2023/09/18 15:12:30;;;;;;;3.50;1.33;;;27.20;1.00;;;;;;5037442;28;20283;-84
2023/09/18 15:14:57;;;;;;;2.40;1.00;;;27.70;1.00;;;;;;5017371;28;20448;-84
2023/09/18 15:17:30;;;;;;;6.53;1.30;;;27.90;1.00;;;;;;5021519;28;20480;-84
2023/09/18 15:19:56;;;;;;;8.47;1.93;;;28.40;1.00;;;;;;5032863;28;20426;-84
2023/09/18 15:22:25;;;;;;;5.20;1.47;;;28.40;1.00;;;;;;5048428;28;20406;-84
2023/09/18 15:28:30;;;;;;;3.57;1.23;;;29.10;1.00;;;;;;5027545;28;20459;-85
2023/09/18 15:31:30;;;;;;;3.93;1.40;;;29.30;1.00;;;;;;5039159;28;20448;-85
2023/09/18 15:34:01;;;;;;;3.10;1.37;;;29.30;1.00;;;;;;5039577;28;20472;-86
2023/09/18 15:37:17;;;;;;;4.90;1.20;;;29.00;1.00;;;;;;5036781;28;20514;-86
2023/09/18 15:40:33;;;;;;;3.73;1.40;;;28.00;1.00;;;;;;5049647;28;20432;-87
2023/09/18 15:43:31;;;;;;;5.03;1.37;;;27.40;1.00;;;;;;5021479;28;20424;-86
2023/09/18 15:46:00;;;;;;;5.23;1.47;;;26.90;1.00;;;;;;5033872;28;20419;-87
2023/09/18 15:48:59;;;;;;;2.90;1.60;;;26.50;1.00;;;;;;5039499;28;20468;-88
2023/09/18 15:51:25;;;;;;;4.23;1.40;;;26.30;1.00;;;;;;5047530;28;20432;-89
2023/09/18 15:54:12;;;;;;;4.00;1.60;;;26.10;1.00;;;;;;5040488;28;20454;-90
2023/09/18 16:03:39;;;;;;;6.23;1.50;;;25.70;1.00;;;;;;5037325;28;20419;-86
2023/09/18 16:09:27;;;;;;;4.67;1.30;;;25.40;1.00;;;;;;5042125;28;20454;-87
2023/09/18 16:15:55;;;;;;;4.17;1.17;;;25.30;1.00;;;;;;5033770;28;20239;-85